createdAt,value
2022-10-13T00:00:42.278Z,100936.81
2022-10-13T00:03:09.013Z,100935.25
2022-10-13T00:05:35.576Z,100931.84
2022-10-13T00:08:02.037Z,100937.22
2022-10-13T00:10:28.602Z,100931.66
2022-10-13T00:12:55.144Z,100931.75
2022-10-13T00:15:21.708Z,100929.66
2022-10-13T00:17:48.261Z,100924.78
2022-10-13T00:20:14.762Z,100931.03
2022-10-13T00:22:41.193Z,100921.59
2022-10-13T00:25:07.890Z,100924.88
2022-10-13T00:27:34.489Z,100919.50
2022-10-13T00:30:00.935Z,100914.19
2022-10-13T00:32:27.438Z,100918.97
2022-10-13T00:34:54.034Z,100922.84
2022-10-13T00:37:20.431Z,100917.38
2022-10-13T00:39:47.402Z,100914.22
2022-10-13T00:42:14.200Z,100909.34
2022-10-13T00:45:00.600Z,100914.19
2022-10-13T00:47:29.070Z,100912.69
2022-10-13T00:49:56.015Z,100911.88
2022-10-13T00:52:23.655Z,100907.84
2022-10-13T00:54:50.745Z,100906.38
2022-10-13T00:57:18.351Z,100904.88
2022-10-13T00:59:44.849Z,100903.28
2022-10-13T01:02:11.331Z,100897.34
2022-10-13T01:04:40.269Z,100896.78
2022-10-13T01:07:06.703Z,100902.19
2022-10-13T01:09:37.747Z,100892.88
2022-10-13T01:12:25.908Z,100893.63
2022-10-13T01:15:02.698Z,100888.56
2022-10-13T01:17:48.905Z,100896.78
2022-10-13T01:20:32.787Z,100889.81
2022-10-13T01:23:53.153Z,100891.59
2022-10-13T01:26:41.365Z,100890.97
2022-10-13T01:29:41.235Z,100893.38
2022-10-13T01:32:13.917Z,100896.78
2022-10-13T01:34:48.120Z,100888.19
2022-10-13T01:37:22.292Z,100885.88
2022-10-13T01:40:14.343Z,100888.94
2022-10-13T01:42:50.113Z,100890.81
2022-10-13T01:45:19.681Z,100889.25
2022-10-13T01:47:47.029Z,100889.44
2022-10-13T01:50:14.989Z,100883.59
2022-10-13T01:52:42.704Z,100878.63
2022-10-13T01:55:12.018Z,100877.03
2022-10-13T01:57:44.535Z,100878.75
2022-10-13T02:00:19.524Z,100877.41
2022-10-13T02:03:20.813Z,100879.28
2022-10-13T02:05:53.758Z,100871.59
2022-10-13T02:11:32.650Z,100870.09
2022-10-13T02:17:10.360Z,100869.66
2022-10-13T02:19:38.241Z,100858.91
2022-10-13T02:22:06.287Z,100856.81
2022-10-13T02:24:33.092Z,100858.72
2022-10-13T02:26:59.556Z,100857.03
2022-10-13T02:29:26.147Z,100856.16
2022-10-13T02:31:54.808Z,100851.94
2022-10-13T02:34:21.336Z,100852.38
2022-10-13T02:36:47.923Z,100860.13
2022-10-13T02:39:14.523Z,100856.81
2022-10-13T02:41:40.999Z,100854.19
2022-10-13T02:44:07.505Z,100853.34
2022-10-13T02:46:34.347Z,100855.97
2022-10-13T02:49:00.937Z,100858.50
2022-10-13T02:51:27.438Z,100859.25
2022-10-13T02:53:54.014Z,100852.69
2022-10-13T02:56:20.554Z,100852.97
2022-10-13T02:58:46.988Z,100858.56
2022-10-13T03:01:14.959Z,100858.78
2022-10-13T03:03:41.552Z,100857.72
2022-10-13T03:06:08.168Z,100851.91
2022-10-13T03:08:35.321Z,100855.38
2022-10-13T03:11:02.033Z,100855.47
2022-10-13T03:13:28.505Z,100849.38
2022-10-13T03:15:54.997Z,100846.84
2022-10-13T03:18:21.496Z,100849.56
2022-10-13T03:21:02.153Z,100841.97
2022-10-13T03:23:28.921Z,100846.56
2022-10-13T03:25:55.970Z,100838.03
2022-10-13T03:28:22.787Z,100834.75
2022-10-13T03:30:49.258Z,100836.00
2022-10-13T03:33:15.940Z,100833.28
2022-10-13T03:35:42.445Z,100831.25
2022-10-13T03:38:08.874Z,100832.22
2022-10-13T03:40:36.407Z,100831.16
2022-10-13T03:43:02.853Z,100835.16
2022-10-13T03:45:31.905Z,100835.91
2022-10-13T03:47:58.757Z,100833.28
2022-10-13T03:50:25.251Z,100824.78
2022-10-13T03:52:51.739Z,100835.69
2022-10-13T03:55:18.229Z,100832.84
2022-10-13T03:57:44.789Z,100836.25
2022-10-13T04:00:12.066Z,100838.78
2022-10-13T04:02:38.507Z,100842.25
2022-10-13T04:05:05.302Z,100842.47
2022-10-13T04:07:32.278Z,100848.50
2022-10-13T04:09:58.681Z,100842.16
2022-10-13T04:12:25.536Z,100837.94
2022-10-13T04:14:52.147Z,100836.25
2022-10-13T04:17:18.670Z,100835.16
2022-10-13T04:19:45.193Z,100842.13
2022-10-13T04:22:11.669Z,100838.09
2022-10-13T04:24:38.132Z,100841.28
2022-10-13T04:27:04.600Z,100835.34
2022-10-13T04:29:32.079Z,100849.28
2022-10-13T04:32:01.362Z,100843.16
2022-10-13T04:34:27.930Z,100843.16
2022-10-13T04:36:54.347Z,100845.72
2022-10-13T04:39:20.836Z,100845.50
2022-10-13T04:41:47.386Z,100850.16
2022-10-13T04:44:13.797Z,100846.53
2022-10-13T04:46:40.253Z,100845.50
2022-10-13T04:49:06.836Z,100847.19
2022-10-13T04:51:33.340Z,100847.19
2022-10-13T04:54:05.516Z,100853.63
2022-10-13T04:56:32.503Z,100850.97
2022-10-13T04:58:59.892Z,100845.50
2022-10-13T05:01:26.922Z,100845.59
2022-10-13T05:03:54.920Z,100851.81
2022-10-13T05:06:27.058Z,100855.28
2022-10-13T05:08:53.879Z,100848.22
2022-10-13T05:11:20.778Z,100843.81
2022-10-13T05:13:48.490Z,100847.28
2022-10-13T05:16:17.184Z,100849.44
2022-10-13T05:18:43.781Z,100847.75
2022-10-13T05:21:12.617Z,100847.25
2022-10-13T05:23:40.245Z,100848.19
2022-10-13T05:26:11.466Z,100853.72
2022-10-13T05:28:38.443Z,100849.91
2022-10-13T05:31:11.679Z,100841.81
2022-10-13T05:33:38.468Z,100844.53
2022-10-13T05:36:11.493Z,100838.94
2022-10-13T05:38:38.781Z,100844.47
2022-10-13T05:41:13.194Z,100853.78
2022-10-13T05:43:40.577Z,100850.38
2022-10-13T05:46:08.115Z,100855.16
2022-10-13T05:48:35.276Z,100852.19
2022-10-13T05:51:04.738Z,100860.34
2022-10-13T05:53:34.343Z,100860.78
2022-10-13T05:56:06.271Z,100860.28
2022-10-13T05:58:38.791Z,100857.31
2022-10-13T06:01:10.818Z,100864.41
2022-10-13T06:03:38.190Z,100868.97
2022-10-13T06:06:04.921Z,100870.44
2022-10-13T06:08:32.083Z,100874.34
2022-10-13T06:10:58.583Z,100876.44
2022-10-13T06:13:25.034Z,100875.06
2022-10-13T06:15:51.798Z,100874.41
2022-10-13T06:18:18.267Z,100874.59
2022-10-13T06:20:44.793Z,100881.16
2022-10-13T06:23:11.461Z,100883.44
2022-10-13T06:25:38.202Z,100879.63
2022-10-13T06:28:04.773Z,100877.44
2022-10-13T06:30:32.292Z,100875.84
2022-10-13T06:32:58.820Z,100884.34
2022-10-13T06:35:25.472Z,100879.06
2022-10-13T06:37:53.367Z,100884.00
2022-10-13T06:40:19.918Z,100876.59
2022-10-13T06:42:50.172Z,100879.38
2022-10-13T06:45:17.639Z,100868.19
2022-10-13T06:47:44.111Z,100876.03
2022-10-13T06:50:10.919Z,100874.84
2022-10-13T06:52:37.776Z,100873.44
2022-10-13T06:55:05.296Z,100874.63
2022-10-13T06:57:32.628Z,100874.41
2022-10-13T06:59:59.529Z,100877.09
2022-10-13T07:02:26.084Z,100873.63
2022-10-13T07:04:52.587Z,100874.94
2022-10-13T07:07:19.590Z,100883.16
2022-10-13T07:09:46.246Z,100882.44
2022-10-13T07:12:14.158Z,100877.06
2022-10-13T07:14:43.714Z,100870.44
2022-10-13T07:17:10.841Z,100862.84
2022-10-13T07:19:37.350Z,100866.78
2022-10-13T07:22:04.160Z,100856.59
2022-10-13T07:24:33.004Z,100862.72
2022-10-13T07:27:03.909Z,100860.09
2022-10-13T07:29:36.731Z,100876.59
2022-10-13T07:32:03.549Z,100878.00
2022-10-13T07:34:30.000Z,100904.28
2022-10-13T07:36:57.128Z,100914.75
2022-10-13T07:39:23.853Z,100929.06
2022-10-13T07:41:51.498Z,100935.56
2022-10-13T07:44:18.861Z,100937.22
2022-10-13T07:46:53.434Z,100942.44
2022-10-13T07:49:20.716Z,100944.16
2022-10-13T07:51:50.559Z,100933.06
2022-10-13T07:54:21.578Z,100928.09
2022-10-13T07:56:57.091Z,100949.44
2022-10-13T07:59:26.502Z,100947.09
2022-10-13T08:01:53.503Z,100933.03
2022-10-13T08:04:20.291Z,100943.25
2022-10-13T08:06:50.224Z,100928.72
2022-10-13T08:09:16.798Z,100923.72
2022-10-13T08:11:43.345Z,100926.03
2022-10-13T08:14:11.900Z,100912.50
2022-10-13T08:16:40.086Z,100904.09
2022-10-13T08:19:06.738Z,100907.59
2022-10-13T08:21:57.598Z,100898.00
2022-10-13T08:24:22.248Z,100904.94
2022-10-13T08:26:53.396Z,100903.66
2022-10-13T08:29:22.593Z,100905.28
2022-10-13T08:31:51.681Z,100913.75
2022-10-13T08:34:18.750Z,100904.00
2022-10-13T08:36:47.782Z,100889.59
2022-10-13T08:39:14.652Z,100903.38
2022-10-13T08:41:46.594Z,100901.03
2022-10-13T08:44:59.174Z,100888.75
2022-10-13T08:47:27.200Z,100881.50
2022-10-13T08:50:00.297Z,100864.00
2022-10-13T08:52:29.693Z,100844.47
2022-10-13T08:54:57.275Z,100831.81
2022-10-13T08:57:24.053Z,100832.66
2022-10-13T08:59:52.795Z,100828.41
2022-10-13T09:02:27.233Z,100824.22
2022-10-13T09:04:54.097Z,100826.38
2022-10-13T09:07:24.900Z,100818.91
2022-10-13T09:09:52.893Z,100814.00
2022-10-13T09:12:24.477Z,100814.78
2022-10-13T09:15:11.954Z,100812.06
2022-10-13T09:17:41.055Z,100817.03
2022-10-13T09:20:23.133Z,100803.97
2022-10-13T09:23:01.447Z,100817.56
2022-10-13T09:25:28.156Z,100813.22
2022-10-13T09:27:58.060Z,100810.69
2022-10-13T09:30:25.618Z,100798.91
2022-10-13T09:33:06.418Z,100798.91
2022-10-13T09:35:35.013Z,100799.91
2022-10-13T09:38:05.609Z,100799.69
2022-10-13T09:40:32.871Z,100798.22
2022-10-13T09:43:01.414Z,100793.88
2022-10-13T09:45:30.670Z,100784.97
2022-10-13T09:48:04.585Z,100788.50
2022-10-13T09:50:35.494Z,100778.75
2022-10-13T09:53:25.714Z,100778.09
2022-10-13T09:56:29.745Z,100772.88
2022-10-13T09:59:18.194Z,100767.72
2022-10-13T10:01:46.567Z,100767.38
2022-10-13T10:04:18.070Z,100767.00
2022-10-13T10:06:48.855Z,100761.00
2022-10-13T10:09:37.242Z,100751.06
2022-10-13T10:12:04.950Z,100761.38
2022-10-13T10:14:37.053Z,100746.56
2022-10-13T10:17:41.607Z,100742.88
2022-10-13T10:20:26.548Z,100749.19
2022-10-13T10:23:01.317Z,100734.16
2022-10-13T10:25:52.496Z,100725.09
2022-10-13T10:28:27.681Z,100715.56
2022-10-13T10:31:02.965Z,100718.75
2022-10-13T10:33:56.422Z,100718.09
2022-10-13T10:36:28.639Z,100720.09
2022-10-13T10:39:03.833Z,100718.41
2022-10-13T10:41:45.583Z,100711.72
2022-10-13T10:44:22.517Z,100717.59
2022-10-13T10:46:49.966Z,100711.22
2022-10-13T10:49:26.900Z,100701.59
2022-10-13T10:51:54.073Z,100703.13
2022-10-13T10:54:20.524Z,100700.44
2022-10-13T10:57:00.549Z,100694.13
2022-10-13T10:59:49.901Z,100691.81
2022-10-13T11:02:35.505Z,100686.03
2022-10-13T11:05:05.423Z,100688.56
2022-10-13T11:07:33.413Z,100687.50
2022-10-13T11:09:59.828Z,100690.50
2022-10-13T11:12:45.033Z,100687.53
2022-10-13T11:15:13.478Z,100672.78
2022-10-13T11:17:41.252Z,100689.63
2022-10-13T11:20:22.381Z,100684.75
2022-10-13T11:22:57.723Z,100676.72
2022-10-13T11:25:42.446Z,100671.56
2022-10-13T11:28:21.287Z,100658.19
2022-10-13T11:30:55.585Z,100650.66
2022-10-13T11:33:34.862Z,100655.22
2022-10-13T11:36:28.956Z,100658.38
2022-10-13T11:39:20.543Z,100652.34
2022-10-13T11:42:05.973Z,100647.88
2022-10-13T11:44:45.782Z,100653.56
2022-10-13T11:47:27.714Z,100641.19
2022-10-13T11:50:08.204Z,100649.75
2022-10-13T11:52:37.961Z,100644.75
2022-10-13T11:58:16.481Z,100636.38
2022-10-13T12:00:56.062Z,100619.28
2022-10-13T12:03:40.521Z,100623.00
2022-10-13T12:06:23.008Z,100611.28
2022-10-13T12:08:51.953Z,100618.81
2022-10-13T12:11:38.381Z,100620.66
2022-10-13T12:14:07.768Z,100598.19
2022-10-13T12:16:34.764Z,100603.53
2022-10-13T12:19:10.146Z,100605.75
2022-10-13T12:21:49.474Z,100597.56
2022-10-13T12:24:16.524Z,100601.56
2022-10-13T12:26:43.564Z,100592.69
2022-10-13T12:29:14.729Z,100603.88
2022-10-13T12:31:44.931Z,100606.91
2022-10-13T12:34:21.855Z,100605.72
2022-10-13T12:37:28.035Z,100593.19
2022-10-13T12:39:56.941Z,100592.84
2022-10-13T12:42:29.848Z,100588.50
2022-10-13T12:44:57.831Z,100587.16
2022-10-13T12:47:50.240Z,100588.31
2022-10-13T12:50:26.132Z,100573.03
2022-10-13T12:53:03.878Z,100579.72
2022-10-13T12:55:33.162Z,100575.88
2022-10-13T12:58:01.586Z,100570.00
2022-10-13T13:00:29.998Z,100570.34
2022-10-13T13:03:05.645Z,100573.38
2022-10-13T13:05:50.758Z,100572.56
2022-10-13T13:08:29.869Z,100569.03
2022-10-13T13:11:01.510Z,100565.88
2022-10-13T13:13:28.924Z,100566.69
2022-10-13T13:16:13.991Z,100567.81
2022-10-13T13:18:42.723Z,100558.59
2022-10-13T13:21:12.021Z,100558.47
2022-10-13T13:23:39.355Z,100555.75
2022-10-13T13:26:14.255Z,100547.41
2022-10-13T13:28:48.084Z,100559.63
2022-10-13T13:31:19.643Z,100543.75
2022-10-13T13:33:46.765Z,100543.59
2022-10-13T13:36:24.222Z,100536.56
2022-10-13T13:38:51.670Z,100534.59
2022-10-13T13:41:18.531Z,100540.13
2022-10-13T13:43:47.849Z,100540.97
2022-10-13T13:46:21.139Z,100534.91
2022-10-13T13:48:48.129Z,100536.59
2022-10-13T13:51:15.565Z,100535.94
2022-10-13T13:53:42.165Z,100536.44
2022-10-13T13:56:17.324Z,100539.22
2022-10-13T13:58:44.628Z,100542.91
2022-10-13T14:01:11.726Z,100542.56
2022-10-13T14:03:38.426Z,100535.97
2022-10-13T14:06:05.519Z,100533.38
2022-10-13T14:08:33.579Z,100534.31
2022-10-13T14:11:00.252Z,100539.53
2022-10-13T14:13:26.933Z,100535.69
2022-10-13T14:15:57.771Z,100529.00
2022-10-13T14:18:24.837Z,100524.81
2022-10-13T14:20:51.430Z,100520.69
2022-10-13T14:23:18.187Z,100524.22
2022-10-13T14:25:44.880Z,100528.09
2022-10-13T14:28:14.571Z,100519.88
2022-10-13T14:30:44.429Z,100515.84
2022-10-13T14:33:11.020Z,100516.84
2022-10-13T14:35:37.503Z,100522.22
2022-10-13T14:38:04.165Z,100517.03
2022-10-13T14:40:31.158Z,100523.03
2022-10-13T14:42:57.696Z,100516.50
2022-10-13T14:45:24.263Z,100517.53
2022-10-13T14:47:52.609Z,100516.34
2022-10-13T14:50:19.113Z,100517.50
2022-10-13T14:52:45.610Z,100511.50
2022-10-13T14:55:12.451Z,100513.16
2022-10-13T14:57:39.011Z,100514.31
2022-10-13T15:00:05.855Z,100508.13
2022-10-13T15:02:32.484Z,100501.25
2022-10-13T15:04:58.963Z,100501.94
2022-10-13T15:07:25.663Z,100495.41
2022-10-13T15:10:04.318Z,100495.34
2022-10-13T15:12:32.251Z,100491.00
2022-10-13T15:14:58.985Z,100479.09
2022-10-13T15:17:25.416Z,100471.53
2022-10-13T15:19:52.131Z,100470.34
2022-10-13T15:22:19.382Z,100468.44
2022-10-13T15:24:46.533Z,100465.78
2022-10-13T15:27:13.041Z,100458.91
2022-10-13T15:29:39.577Z,100455.03
2022-10-13T15:32:13.613Z,100463.44
2022-10-13T15:34:40.140Z,100455.72
2022-10-13T15:37:07.367Z,100467.53
2022-10-13T15:39:34.155Z,100463.78
2022-10-13T15:42:00.929Z,100458.38
2022-10-13T15:44:28.062Z,100464.72
2022-10-13T15:47:07.360Z,100461.94
2022-10-13T15:49:39.393Z,100463.41
2022-10-13T15:52:06.054Z,100454.47
2022-10-13T15:54:33.545Z,100463.53
2022-10-13T15:57:00.299Z,100457.97
2022-10-13T15:59:26.832Z,100455.41
2022-10-13T16:01:53.611Z,100459.56
2022-10-13T16:04:20.331Z,100464.13
2022-10-13T16:06:46.813Z,100467.94
2022-10-13T16:09:13.497Z,100467.19
2022-10-13T16:11:40.224Z,100470.31
2022-10-13T16:14:06.704Z,100466.25
2022-10-13T16:16:35.256Z,100467.53
2022-10-13T16:19:02.098Z,100461.84
2022-10-13T16:21:28.667Z,100463.50
2022-10-13T16:23:55.509Z,100459.84
2022-10-13T16:26:22.590Z,100465.09
2022-10-13T16:28:49.310Z,100470.16
2022-10-13T16:31:16.791Z,100461.53
2022-10-13T16:33:45.065Z,100461.97
2022-10-13T16:36:17.196Z,100460.56
2022-10-13T16:38:45.038Z,100457.78
2022-10-13T16:41:14.740Z,100445.63
2022-10-13T16:43:42.197Z,100443.13
2022-10-13T16:46:12.799Z,100447.88
2022-10-13T16:48:43.219Z,100443.69
2022-10-13T16:51:13.417Z,100443.06
2022-10-13T16:53:40.465Z,100438.88
2022-10-13T16:56:07.828Z,100437.16
2022-10-13T16:58:34.736Z,100445.06
2022-10-13T17:01:10.983Z,100443.38
2022-10-13T17:03:38.873Z,100435.69
2022-10-13T17:06:06.169Z,100436.13
2022-10-13T17:08:33.085Z,100438.97
2022-10-13T17:11:00.068Z,100444.59
2022-10-13T17:13:26.937Z,100442.31
2022-10-13T17:15:55.460Z,100437.66
2022-10-13T17:18:22.286Z,100441.34
2022-10-13T17:21:02.361Z,100450.72
2022-10-13T17:23:29.323Z,100445.00
2022-10-13T17:25:56.365Z,100439.69
2022-10-13T17:28:23.243Z,100438.28
2022-10-13T17:31:04.233Z,100435.38
2022-10-13T17:33:34.804Z,100432.00
2022-10-13T17:36:04.354Z,100426.97
2022-10-13T17:38:34.062Z,100429.22
2022-10-13T17:41:01.794Z,100425.28
2022-10-13T17:43:29.123Z,100427.69
2022-10-13T17:46:07.476Z,100422.50
2022-10-13T17:48:42.850Z,100425.72
2022-10-13T17:51:12.064Z,100428.94
2022-10-13T17:53:39.709Z,100416.22
2022-10-13T17:56:09.460Z,100425.84
2022-10-13T17:58:37.513Z,100422.66
2022-10-13T18:01:14.166Z,100423.63
2022-10-13T18:03:54.850Z,100423.94
2022-10-13T18:06:22.744Z,100423.94
2022-10-13T18:08:52.673Z,100421.13
2022-10-13T18:11:21.573Z,100418.31
2022-10-13T18:13:49.015Z,100419.31
2022-10-13T18:16:18.477Z,100411.06
2022-10-13T18:18:45.900Z,100413.16
2022-10-13T18:21:15.618Z,100415.81
2022-10-13T18:23:43.574Z,100415.41
2022-10-13T18:26:15.810Z,100414.88
2022-10-13T18:28:44.305Z,100412.22
2022-10-13T18:31:22.139Z,100405.75
2022-10-13T18:33:48.799Z,100412.75
2022-10-13T18:36:20.634Z,100408.00
2022-10-13T18:38:47.797Z,100410.81
2022-10-13T18:41:15.318Z,100404.09
2022-10-13T18:43:41.856Z,100406.22
2022-10-13T18:46:09.764Z,100405.22
2022-10-13T18:48:36.693Z,100407.88
2022-10-13T18:51:08.367Z,100396.25
2022-10-13T18:53:36.053Z,100393.47
2022-10-13T18:56:07.871Z,100398.50
2022-10-13T18:58:35.434Z,100392.47
2022-10-13T19:01:03.374Z,100385.38
2022-10-13T19:03:35.760Z,100390.69
2022-10-13T19:06:04.332Z,100384.22
2022-10-13T19:08:32.526Z,100388.16
2022-10-13T19:10:59.754Z,100389.81
2022-10-13T19:13:27.820Z,100377.25
2022-10-13T19:16:01.341Z,100376.97
2022-10-13T19:18:28.115Z,100377.81
2022-10-13T19:20:54.660Z,100376.69
2022-10-13T19:23:22.200Z,100376.53
2022-10-13T19:25:48.889Z,100378.66
2022-10-13T19:28:15.417Z,100385.06
2022-10-13T19:30:42.361Z,100371.63
2022-10-13T19:33:10.467Z,100374.59
2022-10-13T19:35:48.296Z,100379.78
2022-10-13T19:38:15.709Z,100374.47
2022-10-13T19:40:49.715Z,100377.25
2022-10-13T19:43:19.322Z,100374.47
2022-10-13T19:45:47.265Z,100386.88
2022-10-13T19:48:13.979Z,100382.72
2022-10-13T19:50:41.705Z,100383.94
2022-10-13T19:53:09.621Z,100378.66
2022-10-13T19:55:44.621Z,100381.16
2022-10-13T19:58:11.129Z,100379.09
2022-10-13T20:00:37.681Z,100385.09
2022-10-13T20:03:05.120Z,100383.25
2022-10-13T20:05:32.343Z,100391.50
2022-10-13T20:07:58.783Z,100391.66
2022-10-13T20:10:25.577Z,100395.03
2022-10-13T20:12:52.249Z,100393.91
2022-10-13T20:15:18.672Z,100385.94
2022-10-13T20:17:45.099Z,100376.13
2022-10-13T20:20:11.689Z,100380.88
2022-10-13T20:22:39.794Z,100381.44
2022-10-13T20:25:09.121Z,100377.38
2022-10-13T20:27:36.086Z,100387.31
2022-10-13T20:30:02.533Z,100383.66
2022-10-13T20:32:29.042Z,100375.16
2022-10-13T20:34:55.543Z,100376.13
2022-10-13T20:37:22.339Z,100379.47
2022-10-13T20:39:49.274Z,100382.00
2022-10-13T20:42:15.753Z,100381.16
2022-10-13T20:44:42.305Z,100374.97
2022-10-13T20:47:08.753Z,100373.31
2022-10-13T20:49:35.251Z,100367.41
2022-10-13T20:52:01.656Z,100361.41
2022-10-13T20:54:28.108Z,100359.31
2022-10-13T20:56:54.639Z,100353.00
2022-10-13T20:59:21.077Z,100350.75
2022-10-13T21:01:47.499Z,100353.69
2022-10-13T21:04:14.176Z,100352.25
2022-10-13T21:06:41.320Z,100354.81
2022-10-13T21:09:07.968Z,100348.78
2022-10-13T21:11:35.257Z,100348.38
2022-10-13T21:14:06.407Z,100341.78
2022-10-13T21:16:33.638Z,100341.94
2022-10-13T21:19:00.265Z,100343.56
2022-10-13T21:21:32.432Z,100338.66
2022-10-13T21:24:01.074Z,100343.78
2022-10-13T21:26:29.322Z,100339.34
2022-10-13T21:28:56.048Z,100342.13
2022-10-13T21:31:23.898Z,100343.22
2022-10-13T21:33:50.521Z,100344.81
2022-10-13T21:36:18.137Z,100348.72
2022-10-13T21:38:46.252Z,100352.06
2022-10-13T21:41:13.946Z,100350.13
2022-10-13T21:43:40.800Z,100350.38
2022-10-13T21:46:14.080Z,100350.06
2022-10-13T21:48:40.685Z,100343.13
2022-10-13T21:51:23.556Z,100341.47
2022-10-13T21:53:54.661Z,100341.44
2022-10-13T21:56:21.733Z,100335.09
2022-10-13T21:58:49.077Z,100331.31
2022-10-13T22:01:19.397Z,100327.88
2022-10-13T22:03:47.186Z,100328.47
2022-10-13T22:06:19.202Z,100328.41
2022-10-13T22:08:47.588Z,100334.34
2022-10-13T22:11:14.915Z,100325.50
2022-10-13T22:13:41.390Z,100323.38
2022-10-13T22:16:19.644Z,100331.31
2022-10-13T22:18:46.431Z,100330.63
2022-10-13T22:21:16.722Z,100328.28
2022-10-13T22:23:43.459Z,100334.84
2022-10-13T22:26:10.531Z,100330.75
2022-10-13T22:28:37.763Z,100320.09
2022-10-13T22:31:13.373Z,100318.78
2022-10-13T22:33:41.363Z,100326.69
2022-10-13T22:36:15.672Z,100325.06
2022-10-13T22:38:42.986Z,100309.84
2022-10-13T22:41:09.932Z,100311.94
2022-10-13T22:43:36.578Z,100325.53
2022-10-13T22:46:03.845Z,100324.53
2022-10-13T22:48:30.613Z,100318.78
2022-10-13T22:50:57.407Z,100321.31
2022-10-13T22:53:23.918Z,100329.06
2022-10-13T22:55:50.419Z,100318.00
2022-10-13T22:58:17.065Z,100320.66
2022-10-13T23:00:43.525Z,100321.66
2022-10-13T23:03:15.028Z,100319.84
2022-10-13T23:05:43.326Z,100318.16
2022-10-13T23:08:11.085Z,100309.75
2022-10-13T23:10:37.618Z,100318.34
2022-10-13T23:13:05.120Z,100313.88
2022-10-13T23:15:32.415Z,100313.38
2022-10-13T23:17:58.853Z,100308.69
2022-10-13T23:20:25.507Z,100308.34
2022-10-13T23:22:51.943Z,100309.88
2022-10-13T23:25:18.389Z,100312.09
2022-10-13T23:27:44.891Z,100306.13
2022-10-13T23:30:12.074Z,100301.41
2022-10-13T23:32:38.476Z,100310.06
2022-10-13T23:35:05.290Z,100302.38
2022-10-13T23:37:32.349Z,100304.44
2022-10-13T23:39:58.835Z,100298.75
2022-10-13T23:42:25.407Z,100297.09
2022-10-13T23:44:51.843Z,100300.19
2022-10-13T23:47:18.493Z,100296.22
2022-10-13T23:49:45.200Z,100294.72
2022-10-13T23:52:11.701Z,100286.94
2022-10-13T23:54:38.196Z,100290.63
2022-10-13T23:57:04.625Z,100295.63
2022-10-13T23:59:34.208Z,100288.00
